METAR ET TAF INFORMATION
METAR FOR KFHB
ADDS - METARS form results

(1324 UTC 17 October 2019)
Data provider http://aviationweather.gov/metar/data/
 
METAR text: KFHB 171315Z AUTO 33009KT 10SM CLR 15/11 A2997 RMK AO2 T01540110
Conditions at: KFHB (FERNANDINA BEACH, FL, US) observed 1315 UTC 17 October 2019
Temperature: 15.4°C (60°F)
Dewpoint: 11.0°C (52°F) [RH = 75%]
Pressure (altimeter): 29.97 inches Hg (1015.0 mb)
Winds: from the NNW (330 degrees) at 10 MPH (9 knots; 4.6 m/s)
Visibility: 10 or more miles (16+ km)
Ceiling: at least 12,000 feet AGL
Clouds: sky clear below 12,000 feet AGL
Weather: automated observation with no human augmentation;
there may or may not be significant weather present at this time

METAR text: KFHB 171255Z AUTO 34011KT 10SM CLR 15/11 A2996 RMK AO2 T01490107
Conditions at: KFHB (FERNANDINA BEACH, FL, US) observed 1255 UTC 17 October 2019
Temperature: 14.9°C (59°F)
Dewpoint: 10.7°C (51°F) [RH = 76%]
Pressure (altimeter): 29.96 inches Hg (1014.6 mb)
Winds: from the NNW (340 degrees) at 13 MPH (11 knots; 5.7 m/s)
Visibility: 10 or more miles (16+ km)
Ceiling: at least 12,000 feet AGL
Clouds: sky clear below 12,000 feet AGL
Weather: automated observation with no human augmentation;
there may or may not be significant weather present at this time

METAR text: KFHB 171235Z AUTO 34007KT 10SM CLR 15/11 A2995 RMK AO2 T01470111
Conditions at: KFHB (FERNANDINA BEACH, FL, US) observed 1235 UTC 17 October 2019
Temperature: 14.7°C (58°F)
Dewpoint: 11.1°C (52°F) [RH = 79%]
Pressure (altimeter): 29.95 inches Hg (1014.3 mb)
Winds: from the NNW (340 degrees) at 8 MPH (7 knots; 3.6 m/s)
Visibility: 10 or more miles (16+ km)
Ceiling: at least 12,000 feet AGL
Clouds: sky clear below 12,000 feet AGL
Weather: automated observation with no human augmentation;
there may or may not be significant weather present at this time

 AÉROPORT DE AÉROPORT

 INFORMATIONS DE PISTE

 AÉROPORT FRÉQUENCES

 SIDA DE NAVIGATION



Powered by Virtual Airlines Manager [v2.6.2]